Terminal Aerodrome Forecast
Issued by NWS Caribou, ME

Home | Current Version | Previous Version | Text Only | Print | Product List | Glossary On
Versions: 1 2 3 4 5 6 7 8 9 10 11 12 13 14 15 16 17 18 19 20 21 22 23
288
FTUS41 KCAR 181131
TAFBGR
TAF
KBGR 181131Z 1812/1912 VRB03KT P6SM FEW250
     FM182300 15004KT P6SM VCSH BKN070
     FM190200 14005KT 5SM -RA BR OVC035
     FM190600 16008KT 4SM -RA BR OVC003=

USA.gov is the U.S. government's official web portal to all federal, state and local government web resources and services.